Alta Loma, Texas
Current Conditions -  °F | °C
As of 12:52 AM on Friday 19 Dec 2014 (Local Time) from KGLS Reporting Station
Overcast Overcast  
Wind Chill: 61°   Ceiling: 400
Heat Index: 61°   Visibility: 8mi
Dew Point: 61°   Wind: 15mph
Humidity: 100%   Direction: 70°ENE
Pressure: 30"   Gusts: NA
Location:  29.359°N, 95.0861°W
Report Text: KGLS 190652Z AUTO 07013KT 8SM OVC004 16/16 A3000 RMK AO1 SLP160 P0002 T01610161
Loading
Personal Weather Stations






























Interactive Weather Map New forecast layout! Learn more

10-Day Weather Forecast

Advertisements
Track Severe Weather on mobile